createdAt,value
2017-11-29T00:00:03.819Z,8.02
2017-11-29T00:02:29.807Z,8.06
2017-11-29T00:04:55.751Z,8.06
2017-11-29T00:07:21.716Z,7.88
2017-11-29T00:09:47.693Z,7.95
2017-11-29T00:12:13.634Z,7.88
2017-11-29T00:14:39.578Z,7.87
2017-11-29T00:17:05.508Z,7.96
2017-11-29T00:19:31.489Z,7.96
2017-11-29T00:21:57.478Z,8.04
2017-11-29T00:24:23.408Z,8.03
2017-11-29T00:26:49.377Z,7.96
2017-11-29T00:29:15.310Z,7.92
2017-11-29T00:31:41.242Z,8.12
2017-11-29T00:34:07.182Z,8.12
2017-11-29T00:36:33.121Z,8.04
2017-11-29T00:38:59.053Z,8.15
2017-11-29T00:41:25.017Z,7.99
2017-11-29T00:43:50.931Z,7.99
2017-11-29T00:46:16.896Z,7.82
2017-11-29T00:48:42.834Z,7.83
2017-11-29T00:51:08.971Z,7.92
2017-11-29T00:53:34.948Z,7.94
2017-11-29T00:56:00.906Z,7.82
2017-11-29T00:58:26.858Z,7.92
2017-11-29T01:00:52.800Z,7.81
2017-11-29T01:03:18.733Z,7.73
2017-11-29T01:05:44.917Z,7.78
2017-11-29T01:08:10.849Z,7.67
2017-11-29T01:10:36.798Z,7.72
2017-11-29T01:13:02.730Z,7.74
2017-11-29T01:15:28.664Z,7.82
2017-11-29T01:17:54.621Z,7.76
2017-11-29T01:20:20.572Z,7.61
2017-11-29T01:22:46.524Z,7.70
2017-11-29T01:25:12.447Z,7.68
2017-11-29T01:27:38.397Z,7.66
2017-11-29T01:30:04.356Z,7.70
2017-11-29T01:32:30.287Z,7.67
2017-11-29T01:34:56.210Z,7.67
2017-11-29T01:37:22.148Z,7.66
2017-11-29T01:39:48.071Z,7.57
2017-11-29T01:42:14.024Z,7.64
2017-11-29T01:44:39.949Z,7.66
2017-11-29T01:47:05.905Z,7.57
2017-11-29T01:49:31.833Z,7.58
2017-11-29T01:51:57.790Z,7.67
2017-11-29T01:54:23.763Z,7.70
2017-11-29T01:56:49.688Z,7.80
2017-11-29T01:59:15.617Z,7.82
2017-11-29T02:01:41.552Z,7.92
2017-11-29T02:04:07.489Z,7.82
2017-11-29T02:06:33.415Z,7.95
2017-11-29T02:08:59.369Z,7.92
2017-11-29T02:11:25.373Z,8.04
2017-11-29T02:13:51.302Z,8.12
2017-11-29T02:16:17.243Z,8.24
2017-11-29T02:18:43.167Z,7.82
2017-11-29T02:21:09.097Z,7.78
2017-11-29T02:23:35.035Z,7.64
2017-11-29T02:26:00.988Z,7.76
2017-11-29T02:28:27.113Z,7.63
2017-11-29T02:30:53.118Z,7.42
2017-11-29T02:33:19.089Z,7.50
2017-11-29T02:35:45.033Z,7.34
2017-11-29T02:38:10.973Z,7.31
2017-11-29T02:40:36.946Z,7.18
2017-11-29T02:43:02.901Z,7.01
2017-11-29T02:45:28.833Z,7.12
2017-11-29T02:47:54.752Z,7.23
2017-11-29T02:50:20.713Z,7.35
2017-11-29T02:52:46.676Z,7.22
2017-11-29T02:55:12.618Z,6.96
2017-11-29T02:57:38.568Z,6.80
2017-11-29T03:00:04.491Z,6.52
2017-11-29T03:02:30.409Z,6.83
2017-11-29T03:04:56.340Z,6.81
2017-11-29T03:07:22.266Z,6.62
2017-11-29T03:09:48.197Z,6.53
2017-11-29T03:12:14.129Z,6.74
2017-11-29T03:14:40.061Z,6.58
2017-11-29T03:17:05.985Z,6.71
2017-11-29T03:19:31.934Z,7.10
2017-11-29T03:21:57.874Z,6.93
2017-11-29T03:24:23.804Z,6.71
2017-11-29T03:26:49.733Z,6.37
2017-11-29T03:29:15.659Z,6.39
2017-11-29T03:31:41.589Z,6.13
2017-11-29T03:34:07.625Z,6.27
2017-11-29T03:36:33.569Z,6.18
2017-11-29T03:38:59.504Z,6.24
2017-11-29T03:41:25.428Z,6.12
2017-11-29T03:43:51.385Z,6.19
2017-11-29T03:46:17.333Z,5.95
2017-11-29T03:48:43.277Z,5.77
2017-11-29T03:51:09.215Z,5.89
2017-11-29T03:53:35.145Z,5.68
2017-11-29T03:56:01.096Z,6.12
2017-11-29T03:58:27.027Z,5.97
2017-11-29T04:00:52.960Z,6.03
2017-11-29T04:03:18.898Z,5.78
2017-11-29T04:05:44.845Z,5.96
2017-11-29T04:08:10.809Z,6.26
2017-11-29T04:10:36.763Z,6.20
2017-11-29T04:13:02.710Z,6.25
2017-11-29T04:15:28.636Z,6.12
2017-11-29T04:17:54.567Z,6.12
2017-11-29T04:20:20.522Z,5.97
2017-11-29T04:22:46.466Z,6.01
2017-11-29T04:25:12.401Z,6.13
2017-11-29T04:27:38.321Z,5.86
2017-11-29T04:30:04.241Z,5.84
2017-11-29T04:32:30.184Z,5.90
2017-11-29T04:34:56.107Z,6.11
2017-11-29T04:37:22.045Z,5.90
2017-11-29T04:39:47.978Z,5.73
2017-11-29T04:42:13.916Z,5.81
2017-11-29T04:44:39.852Z,5.59
2017-11-29T04:47:05.819Z,5.37
2017-11-29T04:49:31.759Z,5.67
2017-11-29T04:51:57.696Z,5.67
2017-11-29T04:54:23.616Z,5.60
2017-11-29T04:56:49.565Z,5.68
2017-11-29T04:59:15.620Z,5.80
2017-11-29T05:01:41.621Z,5.24
2017-11-29T05:04:07.667Z,5.58
2017-11-29T05:06:33.630Z,5.58
2017-11-29T05:08:59.576Z,5.57
2017-11-29T05:11:25.548Z,5.70
2017-11-29T05:13:51.502Z,5.64
2017-11-29T05:16:17.466Z,5.36
2017-11-29T05:18:43.417Z,5.32
2017-11-29T05:21:09.393Z,5.27
2017-11-29T05:23:35.373Z,5.37
2017-11-29T05:26:01.302Z,5.47
2017-11-29T05:28:27.295Z,5.31
2017-11-29T05:30:53.242Z,5.30
2017-11-29T05:33:19.184Z,5.32
2017-11-29T05:35:45.131Z,5.29
2017-11-29T05:38:11.082Z,5.14
2017-11-29T05:40:37.077Z,5.34
2017-11-29T05:43:03.000Z,5.08
2017-11-29T05:45:28.942Z,5.06
2017-11-29T05:47:54.879Z,5.27
2017-11-29T05:50:20.837Z,5.20
2017-11-29T05:52:46.784Z,5.24
2017-11-29T05:55:12.741Z,5.19
2017-11-29T05:57:38.681Z,5.22
2017-11-29T06:00:04.618Z,5.07
2017-11-29T06:02:30.546Z,5.30
2017-11-29T06:04:56.502Z,5.25
2017-11-29T06:07:22.437Z,5.30
2017-11-29T06:09:48.382Z,5.43
2017-11-29T06:12:14.316Z,5.31
2017-11-29T06:14:40.247Z,5.56
2017-11-29T06:17:06.301Z,5.75
2017-11-29T06:19:32.236Z,5.86
2017-11-29T06:21:58.173Z,5.77
2017-11-29T06:24:24.140Z,5.65
2017-11-29T06:26:50.089Z,5.49
2017-11-29T06:29:16.035Z,5.53
2017-11-29T06:31:41.980Z,5.24
2017-11-29T06:34:07.919Z,5.32
2017-11-29T06:36:33.844Z,5.23
2017-11-29T06:38:59.814Z,5.31
2017-11-29T06:41:25.765Z,5.29
2017-11-29T06:43:51.688Z,5.24
2017-11-29T06:46:17.642Z,5.42
2017-11-29T06:48:43.588Z,5.29
2017-11-29T06:51:09.534Z,5.29
2017-11-29T06:53:35.492Z,5.11
2017-11-29T06:56:01.485Z,5.07
2017-11-29T06:58:27.413Z,5.42
2017-11-29T07:00:53.347Z,5.35
2017-11-29T07:03:19.281Z,5.37
2017-11-29T07:05:45.232Z,5.36
2017-11-29T07:08:11.173Z,5.31
2017-11-29T07:10:37.096Z,5.55
2017-11-29T07:13:03.049Z,5.55
2017-11-29T07:15:29.015Z,5.62
2017-11-29T07:17:54.956Z,5.84
2017-11-29T07:20:20.900Z,5.98
2017-11-29T07:22:46.838Z,5.55
2017-11-29T07:25:12.988Z,5.99
2017-11-29T07:27:39.157Z,6.02
2017-11-29T07:30:05.132Z,5.93
2017-11-29T07:32:31.090Z,5.51
2017-11-29T07:34:57.034Z,5.61
2017-11-29T07:37:22.989Z,5.70
2017-11-29T07:39:48.913Z,5.53
2017-11-29T07:42:14.837Z,5.67
2017-11-29T07:44:40.775Z,5.77
2017-11-29T07:47:06.747Z,5.52
2017-11-29T07:49:32.704Z,5.82
2017-11-29T07:51:58.651Z,5.72
2017-11-29T07:54:24.596Z,5.83
2017-11-29T07:56:50.534Z,5.51
2017-11-29T07:59:16.489Z,5.55
2017-11-29T08:01:42.412Z,5.61
2017-11-29T08:04:08.327Z,5.85
2017-11-29T08:06:34.249Z,5.80
2017-11-29T08:09:00.234Z,5.44
2017-11-29T08:11:26.167Z,5.68
2017-11-29T08:13:52.109Z,5.78
2017-11-29T08:16:18.044Z,5.53
2017-11-29T08:18:43.978Z,5.70
2017-11-29T08:21:09.959Z,5.80
2017-11-29T08:23:35.905Z,6.01
2017-11-29T08:26:01.836Z,6.02
2017-11-29T08:28:27.804Z,5.93
2017-11-29T08:30:53.743Z,5.95
2017-11-29T08:33:19.925Z,6.16
2017-11-29T08:35:46.094Z,6.09
2017-11-29T08:38:12.416Z,6.21
2017-11-29T08:40:38.366Z,6.25
2017-11-29T08:43:04.302Z,6.13
2017-11-29T08:45:30.254Z,5.79
2017-11-29T08:47:56.176Z,6.20
2017-11-29T08:50:22.104Z,6.32
2017-11-29T08:52:48.037Z,6.69
2017-11-29T08:55:13.968Z,6.62
2017-11-29T08:57:39.922Z,6.60
2017-11-29T09:00:05.856Z,6.81
2017-11-29T09:02:31.778Z,6.49
2017-11-29T09:04:57.711Z,6.26
2017-11-29T09:07:23.637Z,6.52
2017-11-29T09:09:49.577Z,6.68
2017-11-29T09:12:15.531Z,6.74
2017-11-29T09:14:41.583Z,6.53
2017-11-29T09:17:07.508Z,6.41
2017-11-29T09:19:33.481Z,6.78
2017-11-29T09:21:59.409Z,6.26
2017-11-29T09:24:25.352Z,6.60
2017-11-29T09:26:51.288Z,6.33
2017-11-29T09:29:17.216Z,6.67
2017-11-29T09:31:43.160Z,6.70
2017-11-29T09:34:09.100Z,6.46
2017-11-29T09:36:35.041Z,6.60
2017-11-29T09:39:00.988Z,6.67
2017-11-29T09:41:26.906Z,6.85
2017-11-29T09:43:52.836Z,6.95
2017-11-29T09:46:18.760Z,6.81
2017-11-29T09:48:44.705Z,6.84
2017-11-29T09:51:10.636Z,6.72
2017-11-29T09:53:36.567Z,6.62
2017-11-29T09:56:02.507Z,6.98
2017-11-29T09:58:28.462Z,6.91
2017-11-29T10:00:54.478Z,7.04
2017-11-29T10:03:20.414Z,6.66
2017-11-29T10:05:46.362Z,6.90
2017-11-29T10:08:12.308Z,6.95
2017-11-29T10:10:38.260Z,7.06
2017-11-29T10:13:04.176Z,7.04
2017-11-29T10:15:30.109Z,7.14
2017-11-29T10:17:56.064Z,7.37
2017-11-29T10:20:22.005Z,7.13
2017-11-29T10:22:47.968Z,7.01
2017-11-29T10:25:13.924Z,7.53
2017-11-29T10:27:39.862Z,7.35
2017-11-29T10:30:05.800Z,7.59
2017-11-29T10:32:31.756Z,7.51
2017-11-29T10:34:57.683Z,8.12
2017-11-29T10:37:23.704Z,8.14
2017-11-29T10:39:49.642Z,8.29
2017-11-29T10:42:15.580Z,8.44
2017-11-29T10:44:41.515Z,8.64
2017-11-29T10:47:07.449Z,8.73
2017-11-29T10:49:33.428Z,8.60
2017-11-29T10:51:59.344Z,8.50
2017-11-29T10:54:25.365Z,8.20
2017-11-29T10:56:51.302Z,8.50
2017-11-29T10:59:17.238Z,8.64
2017-11-29T11:01:43.176Z,8.63
2017-11-29T11:04:09.100Z,8.74
2017-11-29T11:06:35.016Z,8.87
2017-11-29T11:09:00.948Z,8.94
2017-11-29T11:11:26.892Z,8.91
2017-11-29T11:13:52.819Z,8.90
2017-11-29T11:16:18.752Z,9.02
2017-11-29T11:18:44.687Z,9.05
2017-11-29T11:21:10.621Z,9.02
2017-11-29T11:23:36.547Z,8.99
2017-11-29T11:26:02.473Z,9.04
2017-11-29T11:28:28.398Z,9.06
2017-11-29T11:30:54.320Z,9.00
2017-11-29T11:33:20.274Z,9.13
2017-11-29T11:35:46.208Z,9.17
2017-11-29T11:38:12.144Z,9.30
2017-11-29T11:40:38.069Z,9.30
2017-11-29T11:43:03.992Z,9.44
2017-11-29T11:45:29.916Z,9.38
2017-11-29T11:47:55.843Z,9.32
2017-11-29T11:50:21.783Z,9.30
2017-11-29T11:52:47.708Z,9.36
2017-11-29T11:55:13.656Z,9.20
2017-11-29T11:57:39.568Z,9.26
2017-11-29T12:00:05.535Z,9.26
2017-11-29T12:02:31.451Z,9.30
2017-11-29T12:04:57.380Z,9.37
2017-11-29T12:07:23.307Z,9.42
2017-11-29T12:09:49.234Z,9.43
2017-11-29T12:12:15.171Z,9.40
2017-11-29T12:14:41.127Z,9.33
2017-11-29T12:17:07.072Z,9.35
2017-11-29T12:19:33.016Z,9.30
2017-11-29T12:21:58.956Z,9.38
2017-11-29T12:24:24.934Z,9.31
2017-11-29T12:26:50.902Z,9.40
2017-11-29T12:29:16.836Z,9.45
2017-11-29T12:31:42.776Z,9.42
2017-11-29T12:34:08.704Z,9.43
2017-11-29T12:36:34.667Z,9.42
2017-11-29T12:39:00.594Z,9.46
2017-11-29T12:41:26.541Z,9.59
2017-11-29T12:43:52.571Z,9.55
2017-11-29T12:46:18.508Z,9.47
2017-11-29T12:48:44.448Z,9.45
2017-11-29T12:51:10.372Z,9.43
2017-11-29T12:53:36.291Z,9.40
2017-11-29T12:56:02.229Z,9.58
2017-11-29T12:58:28.153Z,9.56
2017-11-29T13:00:54.072Z,9.68
2017-11-29T13:03:19.995Z,9.38
2017-11-29T13:05:45.924Z,9.51
2017-11-29T13:08:11.860Z,9.42
2017-11-29T13:10:37.788Z,9.45
2017-11-29T13:13:03.765Z,9.49
2017-11-29T13:15:29.690Z,9.47
2017-11-29T13:17:55.638Z,9.62
2017-11-29T13:20:21.593Z,9.66
2017-11-29T13:22:47.520Z,9.66
2017-11-29T13:25:13.491Z,9.62
2017-11-29T13:27:39.445Z,9.57
2017-11-29T13:30:05.376Z,9.50
2017-11-29T13:32:31.296Z,9.62
2017-11-29T13:34:57.227Z,9.51
2017-11-29T13:37:23.154Z,9.57
2017-11-29T13:39:49.085Z,9.52
2017-11-29T13:42:15.024Z,9.64
2017-11-29T13:44:40.956Z,9.75
2017-11-29T13:47:06.876Z,9.80
2017-11-29T13:49:32.799Z,9.69
2017-11-29T13:51:58.727Z,9.59
2017-11-29T13:54:24.664Z,9.64
2017-11-29T13:56:50.600Z,9.55
2017-11-29T13:59:16.518Z,9.45
2017-11-29T14:01:42.460Z,9.48
2017-11-29T14:04:08.384Z,9.48
2017-11-29T14:06:34.304Z,9.25
2017-11-29T14:09:00.330Z,9.29
2017-11-29T14:11:26.258Z,9.27
2017-11-29T14:13:52.208Z,9.13
2017-11-29T14:16:18.159Z,8.99
2017-11-29T14:18:44.100Z,9.21
2017-11-29T14:21:10.024Z,9.15
2017-11-29T14:23:35.960Z,9.18
2017-11-29T14:26:01.884Z,9.09
2017-11-29T14:28:27.812Z,9.00
2017-11-29T14:30:53.740Z,8.94
2017-11-29T14:33:19.755Z,8.88
2017-11-29T14:35:45.691Z,8.92
2017-11-29T14:38:11.622Z,9.15
2017-11-29T14:40:37.564Z,9.12
2017-11-29T14:43:03.508Z,9.24
2017-11-29T14:45:29.492Z,9.09
2017-11-29T14:47:55.434Z,9.06
2017-11-29T14:50:21.399Z,8.93
2017-11-29T14:52:47.323Z,8.92
2017-11-29T14:55:13.240Z,8.76
2017-11-29T14:57:39.200Z,8.63
2017-11-29T15:00:05.152Z,8.79
2017-11-29T15:02:31.087Z,8.75
2017-11-29T15:04:57.265Z,8.72
2017-11-29T15:07:24.119Z,8.85
2017-11-29T15:09:50.052Z,8.88
2017-11-29T15:12:15.975Z,8.66
2017-11-29T15:14:41.947Z,8.76
2017-11-29T15:17:07.985Z,8.50
2017-11-29T15:19:33.922Z,8.46
2017-11-29T15:21:59.880Z,8.41
2017-11-29T15:24:25.812Z,8.49
2017-11-29T15:26:51.745Z,8.50
2017-11-29T15:29:17.685Z,8.38
2017-11-29T15:31:43.630Z,8.28
2017-11-29T15:34:09.572Z,8.51
2017-11-29T15:36:35.500Z,8.54
2017-11-29T15:39:01.442Z,8.45
2017-11-29T15:41:27.380Z,8.61
2017-11-29T15:43:53.312Z,8.68
2017-11-29T15:46:19.257Z,8.79
2017-11-29T15:48:45.192Z,8.71
2017-11-29T15:51:11.143Z,8.79
2017-11-29T15:53:37.097Z,8.53
2017-11-29T15:56:03.140Z,8.42
2017-11-29T15:58:29.078Z,8.37
2017-11-29T16:00:55.031Z,8.43
2017-11-29T16:03:20.974Z,8.39
2017-11-29T16:05:46.950Z,8.38
2017-11-29T16:08:12.878Z,8.26
2017-11-29T16:10:38.820Z,8.19
2017-11-29T16:13:04.751Z,8.22
2017-11-29T16:15:30.687Z,8.18
2017-11-29T16:17:56.632Z,8.16
2017-11-29T16:20:22.679Z,8.08
2017-11-29T16:22:48.608Z,7.99
2017-11-29T16:25:14.535Z,7.93
2017-11-29T16:27:40.472Z,7.95
2017-11-29T16:30:06.413Z,7.76
2017-11-29T16:32:32.351Z,7.73
2017-11-29T16:34:58.295Z,7.76
2017-11-29T16:37:24.216Z,7.74
2017-11-29T16:39:50.143Z,7.78
2017-11-29T16:42:16.164Z,7.58
2017-11-29T16:44:42.195Z,7.52
2017-11-29T16:47:08.453Z,7.36
2017-11-29T16:49:34.528Z,7.50
2017-11-29T16:52:00.591Z,7.37
2017-11-29T16:54:26.535Z,7.50
2017-11-29T16:56:52.468Z,7.36
2017-11-29T16:59:19.192Z,7.55
2017-11-29T17:01:45.177Z,7.46
2017-11-29T17:04:11.110Z,7.43
2017-11-29T17:06:37.051Z,7.29
2017-11-29T17:09:02.989Z,7.34
2017-11-29T17:11:28.951Z,7.35
2017-11-29T17:13:54.880Z,7.12
2017-11-29T17:16:20.830Z,7.23
2017-11-29T17:18:46.790Z,7.19
2017-11-29T17:21:12.760Z,7.23
2017-11-29T17:23:38.782Z,7.28
2017-11-29T17:26:04.702Z,7.23
2017-11-29T17:28:30.649Z,7.11
2017-11-29T17:30:56.618Z,7.05
2017-11-29T17:33:22.558Z,6.97
2017-11-29T17:35:48.496Z,7.32
2017-11-29T17:38:14.424Z,7.47
2017-11-29T17:40:40.366Z,7.26
2017-11-29T17:43:06.306Z,7.40
2017-11-29T17:45:32.295Z,7.58
2017-11-29T17:47:58.252Z,7.41
2017-11-29T17:50:24.213Z,7.40
2017-11-29T17:52:50.165Z,7.60
2017-11-29T17:55:16.126Z,7.73
2017-11-29T17:57:42.083Z,7.52
2017-11-29T18:00:08.008Z,7.17
2017-11-29T18:02:34.137Z,7.39
2017-11-29T18:05:00.056Z,7.25
2017-11-29T18:07:26.081Z,7.20
2017-11-29T18:09:52.008Z,7.29
2017-11-29T18:12:17.923Z,7.03
2017-11-29T18:14:43.920Z,7.18
2017-11-29T18:17:09.905Z,7.55
2017-11-29T18:19:35.850Z,7.35
2017-11-29T18:22:01.845Z,7.45
2017-11-29T18:24:28.047Z,7.35
2017-11-29T18:26:54.068Z,7.58
2017-11-29T18:29:20.026Z,7.67
2017-11-29T18:31:46.007Z,7.69
2017-11-29T18:34:11.937Z,7.61
2017-11-29T18:36:37.876Z,7.81
2017-11-29T18:39:03.839Z,7.93
2017-11-29T18:41:29.911Z,7.27
2017-11-29T18:43:55.886Z,7.37
2017-11-29T18:46:21.854Z,7.27
2017-11-29T18:48:47.818Z,7.02
2017-11-29T18:51:13.822Z,7.14
2017-11-29T18:53:39.807Z,7.75
2017-11-29T18:56:05.745Z,8.08
2017-11-29T18:58:31.682Z,7.05
2017-11-29T19:00:57.617Z,7.18
2017-11-29T19:03:23.631Z,7.01
2017-11-29T19:05:49.569Z,7.32
2017-11-29T19:08:15.657Z,7.17
2017-11-29T19:10:41.704Z,6.99
2017-11-29T19:13:07.635Z,7.05
2017-11-29T19:15:33.603Z,7.02
2017-11-29T19:17:59.526Z,6.68
2017-11-29T19:20:25.461Z,6.36
2017-11-29T19:22:51.403Z,6.70
2017-11-29T19:25:17.443Z,6.61
2017-11-29T19:27:43.384Z,6.33
2017-11-29T19:30:09.325Z,6.15
2017-11-29T19:32:35.331Z,6.23
2017-11-29T19:35:01.265Z,6.41
2017-11-29T19:37:27.209Z,6.69
2017-11-29T19:39:53.156Z,6.58
2017-11-29T19:42:19.217Z,6.24
2017-11-29T19:44:45.191Z,6.49
2017-11-29T19:47:11.237Z,6.28
2017-11-29T19:49:37.172Z,6.14
2017-11-29T19:52:03.118Z,6.05
2017-11-29T19:54:29.108Z,6.28
2017-11-29T19:56:55.037Z,6.13
2017-11-29T19:59:20.984Z,6.18
2017-11-29T20:01:47.011Z,6.10
2017-11-29T20:04:12.956Z,6.06
2017-11-29T20:06:38.882Z,6.07
2017-11-29T20:09:04.833Z,6.06
2017-11-29T20:11:30.941Z,5.97
2017-11-29T20:13:57.034Z,5.93
2017-11-29T20:16:23.098Z,6.14
2017-11-29T20:18:49.404Z,6.10
2017-11-29T20:21:15.537Z,6.07
2017-11-29T20:23:41.533Z,6.21
2017-11-29T20:26:07.498Z,6.10
2017-11-29T20:28:33.447Z,6.14
2017-11-29T20:30:59.624Z,5.89
2017-11-29T20:33:25.592Z,5.81
2017-11-29T20:35:51.579Z,5.80
2017-11-29T20:38:17.622Z,5.67
2017-11-29T20:40:43.661Z,5.78
2017-11-29T20:43:09.590Z,5.93
2017-11-29T20:45:35.557Z,5.88
2017-11-29T20:48:01.569Z,5.67
2017-11-29T20:50:27.669Z,5.68
2017-11-29T20:52:53.673Z,5.71
2017-11-29T20:55:19.738Z,5.75
2017-11-29T20:57:45.772Z,6.06
2017-11-29T21:00:11.765Z,6.50
2017-11-29T21:02:37.739Z,6.30
2017-11-29T21:05:03.875Z,6.23
2017-11-29T21:07:30.169Z,6.14
2017-11-29T21:09:56.148Z,6.32
2017-11-29T21:12:22.135Z,6.54
2017-11-29T21:14:48.457Z,6.45
2017-11-29T21:17:14.411Z,6.23
2017-11-29T21:19:40.419Z,5.96
2017-11-29T21:22:06.438Z,6.00
2017-11-29T21:24:32.467Z,5.98
2017-11-29T21:26:58.406Z,6.19
2017-11-29T21:29:24.393Z,5.96
2017-11-29T21:31:50.368Z,5.92
2017-11-29T21:34:16.317Z,6.36
2017-11-29T21:36:42.408Z,5.97
2017-11-29T21:39:08.365Z,6.07
2017-11-29T21:41:34.314Z,5.87
2017-11-29T21:44:00.258Z,5.61
2017-11-29T21:46:26.181Z,5.69
2017-11-29T21:48:52.121Z,5.87
2017-11-29T21:51:18.056Z,5.83
2017-11-29T21:53:44.017Z,6.00
2017-11-29T21:56:09.998Z,5.80
2017-11-29T21:58:35.943Z,5.88
2017-11-29T22:01:01.902Z,5.91
2017-11-29T22:03:27.992Z,5.57
2017-11-29T22:05:53.958Z,5.69
2017-11-29T22:08:19.887Z,5.37
2017-11-29T22:10:45.835Z,5.47
2017-11-29T22:13:11.769Z,5.61
2017-11-29T22:15:37.713Z,5.57
2017-11-29T22:18:03.645Z,5.79
2017-11-29T22:20:29.580Z,5.56
2017-11-29T22:22:55.520Z,5.53
2017-11-29T22:25:21.451Z,5.74
2017-11-29T22:27:47.393Z,5.77
2017-11-29T22:30:13.312Z,5.91
2017-11-29T22:32:39.233Z,5.68
2017-11-29T22:35:05.262Z,5.62
2017-11-29T22:37:31.197Z,5.77
2017-11-29T22:39:57.147Z,5.64
2017-11-29T22:42:23.101Z,5.88
2017-11-29T22:44:49.045Z,5.71
2017-11-29T22:47:14.973Z,5.72
2017-11-29T22:49:40.913Z,5.68
2017-11-29T22:52:06.870Z,5.77
2017-11-29T22:54:32.801Z,5.71
2017-11-29T22:56:58.728Z,5.71
2017-11-29T22:59:24.686Z,5.78
2017-11-29T23:01:50.618Z,5.75
2017-11-29T23:04:16.550Z,5.90
2017-11-29T23:06:42.568Z,5.94
2017-11-29T23:09:08.660Z,5.92
2017-11-29T23:11:34.590Z,5.92
2017-11-29T23:14:00.520Z,6.04
2017-11-29T23:16:26.456Z,6.02
2017-11-29T23:18:52.676Z,6.00
2017-11-29T23:21:18.679Z,6.01
2017-11-29T23:23:44.638Z,6.21
2017-11-29T23:26:10.575Z,6.08
2017-11-29T23:28:36.509Z,6.27
2017-11-29T23:31:02.441Z,5.86
2017-11-29T23:33:28.380Z,5.93
2017-11-29T23:35:54.342Z,6.04
2017-11-29T23:38:20.274Z,6.01
2017-11-29T23:40:46.208Z,6.24
2017-11-29T23:43:12.150Z,6.26
2017-11-29T23:45:39.680Z,6.32
2017-11-29T23:48:05.676Z,6.07
2017-11-29T23:50:31.597Z,6.15
2017-11-29T23:52:57.531Z,5.96
2017-11-29T23:55:23.473Z,5.83
2017-11-29T23:57:49.426Z,5.92
